createdAt,value
2017-01-30T00:00:18.780Z,64.11
2017-01-30T00:01:19.186Z,64.11
2017-01-30T00:02:19.203Z,64.2
2017-01-30T00:03:18.817Z,64.4
2017-01-30T00:04:19.222Z,64.11
2017-01-30T00:05:19.230Z,64.2
2017-01-30T00:06:19.242Z,64.2
2017-01-30T00:07:19.253Z,64.01
2017-01-30T00:08:19.267Z,64.3
2017-01-30T00:09:19.279Z,64.2
2017-01-30T00:10:18.888Z,64.4
2017-01-30T00:11:19.293Z,64.3
2017-01-30T00:12:19.310Z,64.3
2017-01-30T00:13:19.316Z,64.11
2017-01-30T00:14:19.329Z,64.4
2017-01-30T00:15:19.336Z,64.49
2017-01-30T00:16:19.349Z,64.4
2017-01-30T00:17:19.363Z,64.3
2017-01-30T00:18:19.377Z,64.3
2017-01-30T00:19:19.383Z,64.3
2017-01-30T00:20:19.394Z,64.3
2017-01-30T00:21:19.404Z,64.49
2017-01-30T00:22:19.419Z,64.49
2017-01-30T00:23:19.430Z,64.3
2017-01-30T00:24:19.436Z,64.3
2017-01-30T00:25:19.445Z,64.4
2017-01-30T00:26:19.461Z,64.4
2017-01-30T00:27:19.074Z,64.3
2017-01-30T00:28:19.483Z,64.11
2017-01-30T00:29:19.493Z,64.01
2017-01-30T00:30:19.498Z,64.2
2017-01-30T00:31:19.518Z,64.2
2017-01-30T00:32:19.127Z,64.59
2017-01-30T00:33:19.537Z,64.49
2017-01-30T00:34:19.541Z,64.49
2017-01-30T00:35:19.555Z,64.49
2017-01-30T00:36:19.564Z,64.3
2017-01-30T00:37:19.577Z,64.3
2017-01-30T00:38:19.593Z,64.3
2017-01-30T00:39:19.597Z,64.3
2017-01-30T00:40:19.609Z,64.3
2017-01-30T00:41:19.626Z,64.3
2017-01-30T00:42:19.637Z,64.4
2017-01-30T00:43:19.640Z,64.01
2017-01-30T00:44:19.657Z,64.01
2017-01-30T00:45:19.666Z,64.4
2017-01-30T00:46:19.677Z,64.2
2017-01-30T00:47:19.685Z,64.4
2017-01-30T00:48:19.695Z,64.2
2017-01-30T00:49:19.708Z,64.3
2017-01-30T00:50:19.713Z,64.2
2017-01-30T00:51:19.731Z,64.01
2017-01-30T00:52:19.739Z,63.92
2017-01-30T00:53:19.354Z,64.3
2017-01-30T00:54:19.763Z,64.01
2017-01-30T00:55:19.771Z,64.49
2017-01-30T00:56:19.785Z,64.3
2017-01-30T00:57:19.788Z,64.2
2017-01-30T00:58:19.804Z,64.2
2017-01-30T00:59:19.810Z,64.01
2017-01-30T01:00:19.824Z,64.3
2017-01-30T01:01:19.837Z,64.11
2017-01-30T01:02:19.846Z,64.3
2017-01-30T01:03:19.863Z,64.4
2017-01-30T01:04:19.866Z,64.4
2017-01-30T01:05:19.879Z,64.3
2017-01-30T01:06:19.891Z,64.3
2017-01-30T01:07:19.904Z,64.11
2017-01-30T01:08:19.911Z,64.4
2017-01-30T01:09:19.922Z,64.4
2017-01-30T01:10:19.933Z,64.11
2017-01-30T01:11:19.941Z,64.01
2017-01-30T01:12:19.954Z,64.11
2017-01-30T01:13:19.963Z,64.4
2017-01-30T01:14:19.975Z,64.3
2017-01-30T01:15:19.984Z,64.11
2017-01-30T01:16:19.996Z,64.11
2017-01-30T01:17:20.010Z,64.11
2017-01-30T01:18:20.015Z,64.2
2017-01-30T01:19:20.034Z,64.11
2017-01-30T01:20:20.041Z,64.3
2017-01-30T01:21:20.052Z,64.59
2017-01-30T01:22:20.063Z,64.68
2017-01-30T01:23:20.072Z,64.49
2017-01-30T01:24:20.082Z,64.49
2017-01-30T01:25:20.091Z,64.59
2017-01-30T01:26:20.109Z,64.49
2017-01-30T01:27:20.121Z,64.84
2017-01-30T01:28:20.126Z,64.87
2017-01-30T01:29:20.135Z,64.55
2017-01-30T01:30:20.154Z,64.68
2017-01-30T01:31:20.155Z,64.74
2017-01-30T01:32:20.172Z,64.74
2017-01-30T01:33:20.177Z,64.74
2017-01-30T01:34:20.190Z,64.78
2017-01-30T01:35:20.200Z,64.74
2017-01-30T01:36:20.212Z,64.74
2017-01-30T01:37:20.221Z,64.68
2017-01-30T01:38:20.239Z,64.87
2017-01-30T01:39:20.243Z,64.49
2017-01-30T01:40:20.251Z,64.46
2017-01-30T01:41:20.262Z,64.65
2017-01-30T01:42:20.275Z,64.68
2017-01-30T01:43:20.291Z,64.11
2017-01-30T01:44:20.299Z,64.11
2017-01-30T01:45:20.313Z,63.98
2017-01-30T01:46:20.318Z,64.36
2017-01-30T01:47:20.329Z,64.36
2017-01-30T01:48:20.339Z,64.17
2017-01-30T01:49:20.350Z,64.17
2017-01-30T01:50:20.358Z,64.08
2017-01-30T01:51:20.384Z,64.08
2017-01-30T01:52:20.382Z,63.98
2017-01-30T01:53:20.388Z,63.98
2017-01-30T01:54:20.395Z,64.08
2017-01-30T01:55:20.405Z,64.08
2017-01-30T01:56:20.417Z,64.55
2017-01-30T01:57:20.429Z,64.08
2017-01-30T01:58:20.443Z,64.17
2017-01-30T01:59:20.450Z,64.17
2017-01-30T02:00:20.067Z,64.17
2017-01-30T02:01:20.476Z,64.36
2017-01-30T02:02:20.480Z,64.36
2017-01-30T02:03:20.495Z,64.36
2017-01-30T02:04:20.503Z,64.36
2017-01-30T02:05:20.516Z,64.27
2017-01-30T02:06:20.526Z,63.98
2017-01-30T02:07:20.537Z,64.65
2017-01-30T02:08:20.545Z,64.46
2017-01-30T02:09:20.559Z,64.74
2017-01-30T02:10:20.598Z,64.65
2017-01-30T02:11:20.580Z,64.46
2017-01-30T02:12:20.588Z,64.46
2017-01-30T02:13:20.598Z,64.55
2017-01-30T02:14:20.610Z,64.46
2017-01-30T02:15:20.627Z,64.55
2017-01-30T02:16:20.635Z,64.65
2017-01-30T02:17:20.636Z,64.46
2017-01-30T02:18:20.650Z,64.36
2017-01-30T02:19:20.667Z,64.55
2017-01-30T02:20:20.728Z,64.74
2017-01-30T02:21:20.710Z,64.65
2017-01-30T02:22:20.692Z,64.36
2017-01-30T02:23:20.704Z,64.27
2017-01-30T02:24:20.714Z,63.98
2017-01-30T02:25:20.728Z,64.55
2017-01-30T02:26:20.734Z,63.89
2017-01-30T02:27:20.747Z,64.65
2017-01-30T02:28:20.763Z,64.46
2017-01-30T02:29:20.773Z,64.55
2017-01-30T02:30:20.778Z,64.55
2017-01-30T02:31:20.790Z,64.74
2017-01-30T02:32:20.804Z,64.74
2017-01-30T02:33:20.813Z,65.12
2017-01-30T02:34:20.824Z,65.12
2017-01-30T02:35:20.832Z,65.03
2017-01-30T02:36:20.846Z,65.22
2017-01-30T02:37:20.853Z,64.84
2017-01-30T02:38:20.869Z,64.74
2017-01-30T02:39:20.872Z,64.55
2017-01-30T02:40:20.884Z,64.55
2017-01-30T02:41:20.893Z,64.46
2017-01-30T02:42:20.904Z,64.55
2017-01-30T02:43:20.919Z,64.55
2017-01-30T02:44:20.929Z,64.55
2017-01-30T02:45:20.935Z,64.46
2017-01-30T02:46:20.949Z,64.55
2017-01-30T02:47:20.956Z,64.46
2017-01-30T02:48:20.576Z,64.08
2017-01-30T02:49:20.981Z,64.55
2017-01-30T02:50:20.996Z,64.55
2017-01-30T02:51:20.997Z,64.17
2017-01-30T02:52:21.009Z,64.55
2017-01-30T02:53:21.019Z,64.17
2017-01-30T02:54:21.029Z,64.27
2017-01-30T02:55:21.041Z,64.27
2017-01-30T02:56:21.053Z,64.36
2017-01-30T02:57:21.066Z,64.08
2017-01-30T02:58:21.072Z,64.74
2017-01-30T02:59:21.085Z,64.55
2017-01-30T03:00:21.105Z,64.55
2017-01-30T03:01:21.105Z,64.46
2017-01-30T03:02:21.115Z,64.08
2017-01-30T03:03:21.124Z,64.74
2017-01-30T03:04:21.135Z,64.55
2017-01-30T03:05:21.144Z,63.98
2017-01-30T03:06:21.155Z,64.36
2017-01-30T03:07:21.167Z,64.55
2017-01-30T03:08:21.178Z,64.17
2017-01-30T03:09:21.192Z,64.27
2017-01-30T03:10:21.205Z,64.55
2017-01-30T03:11:21.217Z,63.89
2017-01-30T03:12:21.222Z,64.65
2017-01-30T03:13:21.235Z,63.89
2017-01-30T03:14:21.237Z,64.17
2017-01-30T03:15:21.253Z,64.27
2017-01-30T03:16:20.872Z,64.55
2017-01-30T03:17:21.274Z,64.36
2017-01-30T03:18:21.284Z,64.55
2017-01-30T03:19:21.293Z,64.36
2017-01-30T03:20:21.303Z,64.74
2017-01-30T03:21:21.317Z,64.65
2017-01-30T03:22:21.325Z,64.65
2017-01-30T03:23:21.334Z,64.36
2017-01-30T03:24:21.347Z,64.27
2017-01-30T03:25:21.361Z,64.74
2017-01-30T03:26:21.369Z,64.93
2017-01-30T03:27:21.376Z,64.74
2017-01-30T03:28:21.389Z,65.12
2017-01-30T03:29:21.398Z,65.03
2017-01-30T03:30:21.407Z,65.12
2017-01-30T03:31:21.417Z,65.12
2017-01-30T03:32:21.429Z,65.22
2017-01-30T03:33:21.436Z,65.12
2017-01-30T03:34:21.448Z,64.27
2017-01-30T03:35:21.458Z,65.22
2017-01-30T03:36:21.468Z,65.12
2017-01-30T03:37:21.483Z,65.12
2017-01-30T03:38:21.492Z,65.22
2017-01-30T03:39:21.502Z,65.03
2017-01-30T03:40:21.512Z,65.03
2017-01-30T03:41:21.523Z,65.03
2017-01-30T03:42:21.532Z,65.03
2017-01-30T03:43:21.541Z,65.12
2017-01-30T03:44:21.553Z,65.12
2017-01-30T03:45:21.327Z,65.22
2017-01-30T03:46:21.574Z,65.03
2017-01-30T03:47:21.189Z,65.03
2017-01-30T03:48:21.592Z,64.84
2017-01-30T03:49:21.608Z,64.84
2017-01-30T03:50:21.616Z,65.22
2017-01-30T03:51:21.624Z,65.12
2017-01-30T03:52:21.636Z,65.12
2017-01-30T03:53:21.645Z,64.84
2017-01-30T03:54:21.654Z,65.03
2017-01-30T03:55:21.670Z,64.84
2017-01-30T03:56:21.284Z,64.27
2017-01-30T03:57:21.690Z,64.93
2017-01-30T03:58:21.707Z,64.65
2017-01-30T03:59:21.715Z,64.65
2017-01-30T04:00:21.324Z,64.65
2017-01-30T04:01:21.728Z,64.74
2017-01-30T04:02:21.741Z,64.65
2017-01-30T04:03:21.752Z,64.65
2017-01-30T04:04:21.767Z,64.93
2017-01-30T04:05:21.771Z,64.65
2017-01-30T04:06:21.778Z,64.65
2017-01-30T04:07:21.809Z,64.74
2017-01-30T04:08:21.803Z,64.65
2017-01-30T04:09:21.813Z,64.84
2017-01-30T04:10:21.826Z,64.84
2017-01-30T04:11:21.831Z,64.74
2017-01-30T04:12:21.846Z,65.03
2017-01-30T04:13:21.850Z,64.74
2017-01-30T04:14:21.863Z,64.65
2017-01-30T04:15:21.874Z,64.84
2017-01-30T04:16:21.494Z,64.65
2017-01-30T04:17:21.896Z,64.55
2017-01-30T04:18:21.911Z,64.55
2017-01-30T04:19:21.916Z,64.74
2017-01-30T04:20:21.924Z,64.93
2017-01-30T04:21:21.934Z,65.31
2017-01-30T04:22:21.945Z,65.22
2017-01-30T04:23:21.987Z,64.93
2017-01-30T04:24:21.571Z,64.65
2017-01-30T04:25:21.977Z,64.84
2017-01-30T04:26:21.990Z,64.74
2017-01-30T04:27:21.995Z,64.84
2017-01-30T04:28:22.008Z,65.03
2017-01-30T04:29:21.626Z,65.22
2017-01-30T04:30:22.032Z,65.31
2017-01-30T04:31:22.038Z,65.31
2017-01-30T04:32:22.046Z,65.31
2017-01-30T04:33:22.065Z,65.31
2017-01-30T04:34:22.071Z,65.31
2017-01-30T04:35:22.081Z,65.22
2017-01-30T04:36:22.090Z,65.22
2017-01-30T04:37:22.134Z,65.31
2017-01-30T04:38:22.112Z,65.31
2017-01-30T04:39:22.121Z,65.31
2017-01-30T04:40:22.129Z,65.22
2017-01-30T04:41:22.144Z,65.31
2017-01-30T04:42:21.762Z,65.31
2017-01-30T04:43:21.774Z,65.12
2017-01-30T04:44:22.169Z,65.31
2017-01-30T04:45:22.186Z,65.31
2017-01-30T04:46:22.193Z,65.31
2017-01-30T04:47:21.808Z,65.31
2017-01-30T04:48:22.211Z,65.31
2017-01-30T04:49:22.228Z,64.65
2017-01-30T04:50:22.235Z,65.22
2017-01-30T04:51:21.851Z,65.31
2017-01-30T04:52:22.255Z,65.41
2017-01-30T04:53:22.267Z,65.12
2017-01-30T04:54:22.281Z,64.84
2017-01-30T04:55:22.289Z,64.84
2017-01-30T04:56:22.294Z,65.12
2017-01-30T04:57:22.305Z,64.93
2017-01-30T04:58:22.317Z,64.74
2017-01-30T04:59:22.333Z,65.31
2017-01-30T05:00:22.342Z,65.31
2017-01-30T05:01:21.955Z,65.31
2017-01-30T05:02:22.356Z,65.31
2017-01-30T05:03:22.364Z,65.31
2017-01-30T05:04:22.379Z,65.31
2017-01-30T05:05:22.385Z,65.31
2017-01-30T05:06:22.396Z,65.31
2017-01-30T05:07:22.410Z,64.93
2017-01-30T05:08:22.416Z,64.93
2017-01-30T05:09:22.434Z,64.93
2017-01-30T05:10:22.443Z,65.12
2017-01-30T05:11:22.454Z,65.12
2017-01-30T05:12:22.464Z,65.12
2017-01-30T05:13:22.479Z,64.93
2017-01-30T05:14:22.479Z,65.03
2017-01-30T05:15:22.493Z,64.65
2017-01-30T05:16:22.501Z,64.93
2017-01-30T05:17:22.512Z,64.93
2017-01-30T05:18:22.522Z,65.22
2017-01-30T05:19:22.562Z,64.93
2017-01-30T05:20:22.567Z,65.03
2017-01-30T05:21:22.554Z,65.12
2017-01-30T05:22:22.570Z,65.22
2017-01-30T05:23:22.572Z,64.93
2017-01-30T05:24:22.581Z,65.03
2017-01-30T05:25:22.198Z,65.12
2017-01-30T05:26:22.610Z,64.84
2017-01-30T05:27:22.620Z,65.12
2017-01-30T05:28:22.627Z,65.31
2017-01-30T05:29:22.633Z,65.03
2017-01-30T05:30:22.644Z,65.59
2017-01-30T05:31:22.657Z,65.22
2017-01-30T05:32:22.672Z,65.03
2017-01-30T05:33:22.673Z,65.12
2017-01-30T05:34:22.687Z,65.12
2017-01-30T05:35:22.698Z,65.22
2017-01-30T05:36:22.712Z,65.12
2017-01-30T05:37:22.718Z,65.03
2017-01-30T05:38:22.725Z,65.12
2017-01-30T05:39:22.735Z,64.84
2017-01-30T05:40:22.353Z,65.31
2017-01-30T05:41:22.757Z,65.22
2017-01-30T05:42:22.767Z,65.31
2017-01-30T05:43:22.783Z,65.5
2017-01-30T05:44:22.792Z,65.5
2017-01-30T05:45:22.799Z,65.12
2017-01-30T05:46:22.811Z,65.12
2017-01-30T05:47:22.822Z,65.03
2017-01-30T05:48:22.828Z,65.22
2017-01-30T05:49:22.840Z,65.03
2017-01-30T05:50:22.855Z,65.22
2017-01-30T05:51:22.865Z,65.22
2017-01-30T05:52:22.869Z,65.22
2017-01-30T05:53:22.886Z,65.22
2017-01-30T05:54:22.899Z,65.59
2017-01-30T05:55:22.899Z,65.03
2017-01-30T05:56:22.519Z,65.41
2017-01-30T05:57:22.919Z,65.5
2017-01-30T05:58:22.938Z,65.5
2017-01-30T05:59:22.946Z,65.41
2017-01-30T06:00:22.957Z,65.41
2017-01-30T06:01:22.970Z,65.47
2017-01-30T06:02:22.974Z,65.5
2017-01-30T06:03:22.985Z,65.5
2017-01-30T06:04:22.992Z,65.31
2017-01-30T06:05:23.008Z,65.59
2017-01-30T06:06:23.040Z,65.59
2017-01-30T06:07:23.033Z,65.69
2017-01-30T06:08:23.037Z,65.41
2017-01-30T06:09:23.051Z,65.31
2017-01-30T06:10:22.664Z,65.31
2017-01-30T06:11:23.064Z,65.41
2017-01-30T06:12:23.078Z,65.41
2017-01-30T06:13:23.112Z,65.31
2017-01-30T06:14:23.096Z,65.37
2017-01-30T06:15:23.117Z,65.19
2017-01-30T06:16:23.120Z,65.5
2017-01-30T06:17:23.130Z,65.69
2017-01-30T06:18:23.137Z,65.5
2017-01-30T06:19:23.146Z,65.59
2017-01-30T06:20:23.154Z,65.59
2017-01-30T06:21:23.167Z,65.5
2017-01-30T06:22:23.176Z,65.59
2017-01-30T06:23:23.193Z,65.5
2017-01-30T06:24:23.203Z,65.37
2017-01-30T06:25:23.205Z,65.41
2017-01-30T06:26:23.221Z,65.5
2017-01-30T06:27:23.228Z,65.41
2017-01-30T06:28:23.242Z,65.56
2017-01-30T06:29:23.251Z,65.5
2017-01-30T06:30:23.259Z,65.12
2017-01-30T06:31:23.271Z,65.31
2017-01-30T06:32:23.294Z,65.47
2017-01-30T06:33:23.291Z,65.5
2017-01-30T06:34:23.299Z,65.28
2017-01-30T06:35:23.310Z,65.56
2017-01-30T06:36:23.321Z,65.37
2017-01-30T06:37:23.329Z,65.37
2017-01-30T06:38:22.947Z,65.66
2017-01-30T06:39:23.353Z,65.37
2017-01-30T06:40:23.360Z,65.66
2017-01-30T06:41:23.402Z,65.75
2017-01-30T06:42:23.408Z,65.66
2017-01-30T06:43:23.390Z,65.75
2017-01-30T06:44:23.400Z,65.75
2017-01-30T06:45:23.411Z,65.47
2017-01-30T06:46:23.421Z,65.28
2017-01-30T06:47:23.439Z,65.37
2017-01-30T06:48:23.452Z,65.66
2017-01-30T06:49:23.455Z,65.75
2017-01-30T06:50:23.466Z,65.75
2017-01-30T06:51:23.473Z,65.66
2017-01-30T06:52:23.489Z,65.78
2017-01-30T06:53:23.524Z,65.66
2017-01-30T06:54:23.500Z,65.84
2017-01-30T06:55:23.513Z,65.56
2017-01-30T06:56:23.523Z,65.66
2017-01-30T06:57:23.539Z,65.78
2017-01-30T06:58:23.548Z,65.56
2017-01-30T06:59:23.559Z,66.07
2017-01-30T07:00:23.570Z,65.78
2017-01-30T07:01:23.577Z,65.5
2017-01-30T07:02:23.584Z,65.56
2017-01-30T07:03:23.594Z,65.59
2017-01-30T07:04:23.607Z,65.78
2017-01-30T07:05:23.623Z,65.84
2017-01-30T07:06:23.233Z,65.75
2017-01-30T07:07:23.242Z,65.78
2017-01-30T07:08:23.651Z,66.16
2017-01-30T07:09:23.259Z,65.88
2017-01-30T07:10:23.670Z,65.78
2017-01-30T07:11:23.683Z,65.75
2017-01-30T07:12:23.687Z,65.69
2017-01-30T07:13:23.696Z,65.5
2017-01-30T07:14:23.704Z,65.66
2017-01-30T07:15:23.716Z,65.88
2017-01-30T07:16:23.731Z,65.59
2017-01-30T07:17:23.736Z,65.59
2017-01-30T07:18:23.760Z,65.75
2017-01-30T07:19:23.759Z,65.59
2017-01-30T07:20:23.766Z,65.59
2017-01-30T07:21:23.778Z,65.97
2017-01-30T07:22:23.788Z,65.69
2017-01-30T07:23:23.812Z,66.07
2017-01-30T07:24:23.822Z,65.59
2017-01-30T07:25:23.820Z,66.07
2017-01-30T07:26:23.832Z,65.78
2017-01-30T07:27:23.842Z,65.5
2017-01-30T07:28:23.848Z,65.31
2017-01-30T07:29:23.860Z,65.69
2017-01-30T07:30:23.876Z,65.41
2017-01-30T07:31:23.905Z,65.69
2017-01-30T07:32:23.890Z,65.41
2017-01-30T07:33:23.901Z,65.88
2017-01-30T07:34:23.908Z,65.5
2017-01-30T07:35:23.921Z,66.16
2017-01-30T07:36:23.936Z,65.31
2017-01-30T07:37:23.939Z,65.41
2017-01-30T07:38:23.953Z,65.41
2017-01-30T07:39:23.966Z,65.5
2017-01-30T07:40:23.980Z,65.5
2017-01-30T07:41:23.994Z,65.5
2017-01-30T07:42:23.993Z,65.78
2017-01-30T07:43:24.001Z,65.69
2017-01-30T07:44:24.014Z,65.78
2017-01-30T07:45:24.025Z,65.69
2017-01-30T07:46:24.043Z,65.59
2017-01-30T07:47:24.050Z,65.22
2017-01-30T07:48:24.058Z,65.22
2017-01-30T07:49:24.063Z,65.41
2017-01-30T07:50:24.077Z,65.69
2017-01-30T07:51:24.083Z,65.5
2017-01-30T07:52:23.702Z,65.69
2017-01-30T07:53:24.104Z,65.5
2017-01-30T07:54:24.126Z,65.41
2017-01-30T07:55:23.733Z,65.78
2017-01-30T07:56:24.136Z,65.78
2017-01-30T07:57:24.152Z,65.31
2017-01-30T07:58:24.155Z,65.5
2017-01-30T07:59:24.166Z,65.5
2017-01-30T08:00:23.784Z,65.41
2017-01-30T08:01:24.191Z,65.41
2017-01-30T08:02:24.200Z,65.59
2017-01-30T08:03:24.213Z,65.31
2017-01-30T08:04:23.824Z,65.22
2017-01-30T08:05:24.228Z,65.41
2017-01-30T08:06:24.236Z,65.41
2017-01-30T08:07:24.249Z,65.31
2017-01-30T08:08:23.868Z,65.41
2017-01-30T08:09:24.274Z,65.41
2017-01-30T08:10:24.281Z,65.22
2017-01-30T08:11:24.290Z,65.22
2017-01-30T08:12:24.304Z,65.41
2017-01-30T08:13:24.314Z,65.59
2017-01-30T08:14:24.323Z,65.41
2017-01-30T08:15:24.330Z,65.5
2017-01-30T08:16:24.376Z,65.41
2017-01-30T08:17:24.354Z,65.5
2017-01-30T08:18:24.366Z,65.59
2017-01-30T08:19:24.375Z,65.5
2017-01-30T08:20:24.384Z,65.12
2017-01-30T08:21:24.397Z,65.41
2017-01-30T08:22:24.404Z,65.41
2017-01-30T08:23:24.417Z,65.41
2017-01-30T08:24:24.430Z,65.31
2017-01-30T08:25:24.434Z,65.31
2017-01-30T08:26:24.447Z,65.5
2017-01-30T08:27:24.456Z,65.69
2017-01-30T08:28:24.471Z,65.59
2017-01-30T08:29:24.477Z,65.5
2017-01-30T08:30:24.485Z,65.5
2017-01-30T08:31:24.498Z,65.5
2017-01-30T08:32:24.509Z,65.03
2017-01-30T08:33:24.517Z,65.5
2017-01-30T08:34:24.530Z,65.69
2017-01-30T08:35:24.541Z,65.59
2017-01-30T08:36:24.556Z,65.5
2017-01-30T08:37:24.564Z,65.5
2017-01-30T08:38:24.575Z,65.5
2017-01-30T08:39:24.582Z,65.5
2017-01-30T08:40:24.589Z,65.5
2017-01-30T08:41:24.606Z,65.69
2017-01-30T08:42:24.616Z,65.5
2017-01-30T08:43:24.621Z,65.5
2017-01-30T08:44:24.634Z,65.41
2017-01-30T08:45:24.642Z,65.31
2017-01-30T08:46:24.655Z,65.5
2017-01-30T08:47:24.661Z,65.31
2017-01-30T08:48:24.674Z,65.59
2017-01-30T08:49:24.683Z,65.5
2017-01-30T08:50:24.692Z,65.59
2017-01-30T08:51:24.705Z,65.5
2017-01-30T08:52:24.717Z,65.59
2017-01-30T08:53:24.727Z,65.41
2017-01-30T08:54:24.744Z,65.5
2017-01-30T08:55:24.749Z,65.78
2017-01-30T08:56:24.760Z,65.69
2017-01-30T08:57:24.772Z,65.12
2017-01-30T08:58:24.784Z,65.63
2017-01-30T08:59:24.792Z,65.25
2017-01-30T09:00:24.799Z,65.72
2017-01-30T09:01:24.807Z,65.12
2017-01-30T09:02:24.819Z,65.12
2017-01-30T09:03:24.838Z,64.97
2017-01-30T09:04:24.450Z,64.87
2017-01-30T09:05:24.851Z,64.97
2017-01-30T09:06:24.860Z,65.16
2017-01-30T09:07:24.874Z,65.34
2017-01-30T09:08:24.889Z,64.97
2017-01-30T09:09:24.900Z,65.25
2017-01-30T09:10:24.903Z,65.34
2017-01-30T09:11:24.916Z,65.34
2017-01-30T09:12:24.926Z,65.34
2017-01-30T09:13:24.936Z,64.78
2017-01-30T09:14:24.947Z,64.68
2017-01-30T09:15:24.957Z,64.68
2017-01-30T09:16:24.964Z,64.97
2017-01-30T09:17:24.978Z,64.87
2017-01-30T09:18:24.988Z,64.78
2017-01-30T09:19:25.001Z,65.25
2017-01-30T09:20:25.014Z,64.78
2017-01-30T09:21:25.021Z,64.87
2017-01-30T09:22:25.034Z,64.68
2017-01-30T09:23:25.041Z,64.3
2017-01-30T09:24:25.053Z,64.11
2017-01-30T09:25:25.063Z,64.3
2017-01-30T09:26:25.073Z,64.4
2017-01-30T09:27:25.083Z,64.49
2017-01-30T09:28:25.125Z,64.3
2017-01-30T09:29:24.710Z,64.2
2017-01-30T09:30:25.125Z,64.3
2017-01-30T09:31:25.133Z,64.49
2017-01-30T09:32:25.138Z,63.64
2017-01-30T09:33:25.149Z,63.73
2017-01-30T09:34:25.162Z,64.4
2017-01-30T09:35:25.172Z,64.49
2017-01-30T09:36:24.789Z,64.3
2017-01-30T09:37:25.194Z,63.92
2017-01-30T09:38:25.202Z,63.82
2017-01-30T09:39:25.213Z,64.4
2017-01-30T09:40:25.228Z,64.4
2017-01-30T09:41:24.840Z,64.2
2017-01-30T09:42:25.249Z,64.2
2017-01-30T09:43:25.261Z,63.92
2017-01-30T09:44:25.273Z,63.73
2017-01-30T09:45:25.278Z,63.82
2017-01-30T09:46:25.294Z,63.86
2017-01-30T09:47:25.303Z,63.92
2017-01-30T09:48:25.312Z,63.73
2017-01-30T09:49:25.322Z,63.92
2017-01-30T09:50:25.337Z,63.76
2017-01-30T09:51:25.342Z,63.76
2017-01-30T09:52:25.356Z,63.67
2017-01-30T09:53:25.367Z,63.67
2017-01-30T09:54:25.376Z,63.82
2017-01-30T09:55:25.385Z,63.76
2017-01-30T09:56:25.004Z,63.76
2017-01-30T09:57:25.415Z,63.86
2017-01-30T09:58:25.421Z,63.76
2017-01-30T09:59:25.441Z,63.95
2017-01-30T10:00:25.441Z,63.67
2017-01-30T10:01:25.452Z,63.76
2017-01-30T10:02:25.465Z,63.76
2017-01-30T10:03:25.475Z,64.05
2017-01-30T10:04:25.488Z,63.76
2017-01-30T10:05:25.500Z,63.86
2017-01-30T10:06:25.506Z,63.86
2017-01-30T10:07:25.521Z,63.67
2017-01-30T10:08:25.532Z,63.67
2017-01-30T10:09:25.541Z,63.76
2017-01-30T10:10:25.180Z,63.67
2017-01-30T10:11:25.560Z,63.48
2017-01-30T10:12:25.578Z,63.57
2017-01-30T10:13:25.586Z,63.29
2017-01-30T10:14:25.595Z,63.29
2017-01-30T10:15:25.607Z,63.39
2017-01-30T10:16:25.667Z,63.29
2017-01-30T10:17:25.630Z,63.39
2017-01-30T10:18:25.641Z,63.39
2017-01-30T10:19:25.654Z,63.48
2017-01-30T10:20:25.668Z,63.48
2017-01-30T10:21:25.676Z,63.57
2017-01-30T10:22:25.685Z,63.39
2017-01-30T10:23:25.698Z,63.39
2017-01-30T10:24:25.712Z,63.57
2017-01-30T10:25:25.724Z,63.57
2017-01-30T10:26:25.731Z,64.05
2017-01-30T10:27:25.740Z,63.48
2017-01-30T10:28:25.754Z,63.39
2017-01-30T10:29:25.770Z,63.29
2017-01-30T10:30:25.775Z,63.39
2017-01-30T10:31:25.787Z,63.86
2017-01-30T10:32:25.800Z,63.48
2017-01-30T10:33:25.809Z,63.39
2017-01-30T10:34:25.817Z,63.95
2017-01-30T10:35:25.833Z,63.57
2017-01-30T10:36:25.844Z,63.76
2017-01-30T10:37:25.853Z,63.76
2017-01-30T10:38:25.871Z,63.67
2017-01-30T10:39:25.876Z,63.95
2017-01-30T10:40:25.889Z,63.76
2017-01-30T10:41:25.895Z,63.76
2017-01-30T10:42:25.912Z,63.76
2017-01-30T10:43:25.922Z,63.57
2017-01-30T10:44:25.931Z,63.95
2017-01-30T10:45:25.941Z,63.57
2017-01-30T10:46:25.958Z,64.05
2017-01-30T10:47:25.965Z,63.76
2017-01-30T10:48:25.979Z,63.29
2017-01-30T10:49:25.989Z,63.39
2017-01-30T10:50:26.000Z,63.39
2017-01-30T10:51:26.013Z,63.29
2017-01-30T10:52:26.025Z,63.2
2017-01-30T10:53:26.040Z,63.48
2017-01-30T10:54:26.046Z,63.29
2017-01-30T10:55:26.066Z,63.39
2017-01-30T10:56:26.070Z,63.2
2017-01-30T10:57:25.686Z,63.48
2017-01-30T10:58:26.095Z,63.48
2017-01-30T10:59:26.102Z,63.67
2017-01-30T11:00:26.115Z,63.39
2017-01-30T11:01:26.127Z,63.29
2017-01-30T11:02:26.145Z,63.2
2017-01-30T11:03:26.150Z,63.29
2017-01-30T11:04:26.161Z,63.39
2017-01-30T11:05:26.178Z,63.39
2017-01-30T11:06:26.183Z,63.39
2017-01-30T11:07:26.196Z,63.39
2017-01-30T11:08:26.208Z,63.29
2017-01-30T11:09:26.219Z,63.57
2017-01-30T11:10:26.229Z,63.48
2017-01-30T11:11:26.241Z,63.39
2017-01-30T11:12:26.252Z,63.57
2017-01-30T11:13:26.265Z,63.57
2017-01-30T11:14:26.275Z,63.48
2017-01-30T11:15:26.289Z,63.48
2017-01-30T11:16:26.305Z,63.6
2017-01-30T11:17:26.309Z,63.29
2017-01-30T11:18:26.330Z,63.39
2017-01-30T11:19:25.943Z,63.1
2017-01-30T11:20:25.950Z,63.23
2017-01-30T11:21:26.360Z,63.48
2017-01-30T11:22:26.404Z,63.39
2017-01-30T11:23:26.377Z,63.57
2017-01-30T11:24:25.998Z,63.57
2017-01-30T11:25:26.429Z,63.29
2017-01-30T11:26:26.415Z,63.2
2017-01-30T11:27:26.425Z,63.29
2017-01-30T11:28:26.439Z,63.2
2017-01-30T11:29:26.452Z,63.48
2017-01-30T11:30:26.461Z,64.17
2017-01-30T11:31:26.472Z,63.95
2017-01-30T11:32:26.092Z,63.67
2017-01-30T11:33:26.493Z,63.79
2017-01-30T11:34:26.506Z,63.86
2017-01-30T11:35:26.515Z,63.89
2017-01-30T11:36:26.133Z,63.86
2017-01-30T11:37:26.540Z,63.86
2017-01-30T11:38:26.556Z,63.86
2017-01-30T11:39:26.565Z,63.95
2017-01-30T11:40:26.577Z,64.05
2017-01-30T11:41:26.587Z,64.24
2017-01-30T11:42:26.595Z,64.05
2017-01-30T11:43:26.615Z,64.24
2017-01-30T11:44:26.622Z,64.24
2017-01-30T11:45:26.655Z,63.95
2017-01-30T11:46:26.644Z,63.86
2017-01-30T11:47:26.657Z,64.33
2017-01-30T11:48:26.298Z,64.27
2017-01-30T11:49:26.681Z,64.24
2017-01-30T11:50:26.693Z,64.24
2017-01-30T11:51:26.309Z,64.43
2017-01-30T11:52:26.324Z,64.62
2017-01-30T11:53:26.726Z,64.52
2017-01-30T11:54:26.738Z,64.52
2017-01-30T11:55:26.748Z,65.19
2017-01-30T11:56:26.762Z,65.19
2017-01-30T11:57:26.772Z,65.09
2017-01-30T11:58:26.784Z,65.09
2017-01-30T11:59:26.794Z,64.75
2017-01-30T12:00:26.412Z,65.12
2017-01-30T12:01:26.816Z,64.9
2017-01-30T12:02:26.837Z,65.09
2017-01-30T12:03:26.842Z,64.75
2017-01-30T12:04:26.855Z,65.03
2017-01-30T12:05:26.870Z,64.9
2017-01-30T12:06:26.881Z,64.9
2017-01-30T12:07:26.891Z,64.71
2017-01-30T12:08:26.899Z,64.71
2017-01-30T12:09:26.916Z,65.28
2017-01-30T12:10:26.927Z,65.28
2017-01-30T12:11:26.938Z,65.37
2017-01-30T12:12:26.949Z,65.41
2017-01-30T12:13:26.960Z,65.09
2017-01-30T12:14:26.972Z,65.19
2017-01-30T12:15:26.983Z,65.09
2017-01-30T12:16:27.000Z,65.19
2017-01-30T12:17:27.005Z,65.19
2017-01-30T12:18:27.023Z,65
2017-01-30T12:19:27.028Z,64.9
2017-01-30T12:20:26.653Z,65.37
2017-01-30T12:21:27.050Z,64.9
2017-01-30T12:22:27.070Z,65.28
2017-01-30T12:23:27.074Z,65
2017-01-30T12:24:27.088Z,65.79
2017-01-30T12:25:27.099Z,65.5
2017-01-30T12:26:27.108Z,65.47
2017-01-30T12:27:27.121Z,65.5
2017-01-30T12:28:27.137Z,65.31
2017-01-30T12:29:27.176Z,65.69
2017-01-30T12:30:27.158Z,65.5
2017-01-30T12:31:27.173Z,65.79
2017-01-30T12:32:27.186Z,65.22
2017-01-30T12:33:26.798Z,65.6
2017-01-30T12:34:27.202Z,65.79
2017-01-30T12:35:27.217Z,65.6
2017-01-30T12:36:27.226Z,65.79
2017-01-30T12:37:27.242Z,65.79
2017-01-30T12:38:27.249Z,65.98
2017-01-30T12:39:27.260Z,65.88
2017-01-30T12:40:27.275Z,65.5
2017-01-30T12:41:27.286Z,66.17
2017-01-30T12:42:27.312Z,65.88
2017-01-30T12:43:27.312Z,65.79
2017-01-30T12:44:27.320Z,65.5
2017-01-30T12:45:27.341Z,65.6
2017-01-30T12:46:27.347Z,65.79
2017-01-30T12:47:27.361Z,65.79
2017-01-30T12:48:26.974Z,65.6
2017-01-30T12:49:27.388Z,65.5
2017-01-30T12:50:27.393Z,65.5
2017-01-30T12:51:27.406Z,65.79
2017-01-30T12:52:27.415Z,65.79
2017-01-30T12:53:27.432Z,65.5
2017-01-30T12:54:27.440Z,65.31
2017-01-30T12:55:27.452Z,65.5
2017-01-30T12:56:27.466Z,65.6
2017-01-30T12:57:27.481Z,65.88